createdAt,value
2023-05-19T00:01:48.599Z,102005.16
2023-05-19T00:04:15.633Z,102008.25
2023-05-19T00:06:42.587Z,102010.38
2023-05-19T00:09:10.347Z,102007.44
2023-05-19T00:11:38.472Z,102007.13
2023-05-19T00:14:07.847Z,102006.59
2023-05-19T00:16:34.931Z,102005.94
2023-05-19T00:19:03.609Z,102001.06
2023-05-19T00:21:31.361Z,102000.41
2023-05-19T00:23:58.197Z,102008.53
2023-05-19T00:26:27.063Z,102007.91
2023-05-19T00:28:54.021Z,102010.81
2023-05-19T00:31:20.741Z,101996.00
2023-05-19T00:33:47.363Z,101988.19
2023-05-19T00:36:13.876Z,101989.34
2023-05-19T00:38:40.546Z,101998.78
2023-05-19T00:41:07.319Z,101993.75
2023-05-19T00:43:36.392Z,101993.09
2023-05-19T00:46:03.474Z,101999.44
2023-05-19T00:48:30.036Z,101997.16
2023-05-19T00:51:02.341Z,101996.50
2023-05-19T00:53:29.426Z,101995.84
2023-05-19T00:55:56.511Z,102004.78
2023-05-19T00:58:25.581Z,101992.94
2023-05-19T01:00:52.427Z,102001.19
2023-05-19T01:03:20.408Z,102002.19
2023-05-19T01:05:47.642Z,101996.81
2023-05-19T01:08:14.210Z,102003.16
2023-05-19T01:10:40.845Z,102002.69
2023-05-19T01:13:08.360Z,101993.22
2023-05-19T01:15:59.369Z,102001.69
2023-05-19T01:18:36.847Z,101997.31
2023-05-19T01:21:19.176Z,101999.56
2023-05-19T01:24:09.090Z,102001.53
2023-05-19T01:27:17.007Z,101993.22
2023-05-19T01:30:11.834Z,101996.78
2023-05-19T01:32:41.911Z,102003.28
2023-05-19T01:35:09.732Z,102002.63
2023-05-19T01:37:38.822Z,102001.97
2023-05-19T01:40:09.925Z,102006.19
2023-05-19T01:42:39.836Z,102007.63
2023-05-19T01:45:10.569Z,102010.88
2023-05-19T01:47:41.224Z,102010.69
2023-05-19T01:50:08.094Z,102015.69
2023-05-19T01:52:34.723Z,102012.56
2023-05-19T01:55:01.213Z,102025.44
2023-05-19T01:57:42.718Z,102020.75
2023-05-19T02:00:31.320Z,102018.59
2023-05-19T02:03:16.533Z,102018.09
2023-05-19T02:05:55.655Z,102019.06
2023-05-19T02:08:44.281Z,102018.09
2023-05-19T02:11:25.811Z,102012.41
2023-05-19T02:13:55.738Z,102010.44
2023-05-19T02:16:27.615Z,102010.75
2023-05-19T02:18:55.256Z,102013.78
2023-05-19T02:21:21.783Z,102017.38
2023-05-19T02:23:49.019Z,102014.28
2023-05-19T02:26:15.551Z,102018.81
2023-05-19T02:28:42.097Z,102015.88
2023-05-19T02:31:10.088Z,102012.63
2023-05-19T02:33:37.441Z,102011.50
2023-05-19T02:36:04.456Z,102009.75
2023-05-19T02:38:31.018Z,102012.50
2023-05-19T02:40:57.498Z,102016.06
2023-05-19T02:43:23.931Z,102014.97
2023-05-19T02:45:50.512Z,102021.78
2023-05-19T02:48:17.010Z,102012.38
2023-05-19T02:50:43.607Z,102017.72
2023-05-19T02:53:10.323Z,102007.94
2023-05-19T02:55:37.304Z,102004.53
2023-05-19T02:58:04.139Z,102005.81
2023-05-19T03:00:30.784Z,102008.88
2023-05-19T03:03:02.700Z,102007.25
2023-05-19T03:05:30.367Z,102006.78
2023-05-19T03:07:56.972Z,101999.34
2023-05-19T03:10:23.593Z,102004.53
2023-05-19T03:12:50.041Z,102000.81
2023-05-19T03:15:16.663Z,101998.03
2023-05-19T03:17:43.386Z,102004.22
2023-05-19T03:20:10.865Z,101993.81
2023-05-19T03:22:37.372Z,101996.94
2023-05-19T03:25:04.239Z,101989.78
2023-05-19T03:27:30.746Z,101997.44
2023-05-19T03:29:57.253Z,101990.31
2023-05-19T03:32:23.928Z,101998.59
2023-05-19T03:34:50.728Z,102000.56
2023-05-19T03:37:17.258Z,101990.50
2023-05-19T03:39:43.803Z,101986.47
2023-05-19T03:42:10.457Z,101990.84
2023-05-19T03:44:36.917Z,101986.53
2023-05-19T03:47:03.484Z,101993.34
2023-05-19T03:49:29.987Z,101992.41
2023-05-19T03:51:56.494Z,101993.88
2023-05-19T03:54:23.292Z,101998.75
2023-05-19T03:56:49.969Z,102003.50
2023-05-19T03:59:16.581Z,101998.59
2023-05-19T04:01:43.138Z,102004.03
2023-05-19T04:04:09.700Z,101998.31
2023-05-19T04:06:36.278Z,102005.63
2023-05-19T04:09:05.120Z,102002.81
2023-05-19T04:11:31.773Z,102005.56
2023-05-19T04:13:58.279Z,102006.16
2023-05-19T04:16:24.992Z,102003.47
2023-05-19T04:18:51.824Z,102001.25
2023-05-19T04:21:18.480Z,102005.88
2023-05-19T04:23:45.030Z,102001.44
2023-05-19T04:26:12.287Z,102002.59
2023-05-19T04:28:42.283Z,101998.69
2023-05-19T04:31:12.840Z,102006.28
2023-05-19T04:33:40.363Z,102006.22
2023-05-19T04:36:11.468Z,102006.06
2023-05-19T04:38:39.922Z,101999.47
2023-05-19T04:41:10.623Z,102001.97
2023-05-19T04:43:41.496Z,102010.31
2023-05-19T04:46:12.315Z,102006.69
2023-05-19T04:48:42.823Z,102010.47
2023-05-19T04:51:09.526Z,102000.50
2023-05-19T04:53:36.639Z,102008.03
2023-05-19T04:56:03.589Z,102012.59
2023-05-19T04:58:30.238Z,102007.78
2023-05-19T05:00:57.829Z,102007.16
2023-05-19T05:03:25.177Z,102010.88
2023-05-19T05:05:52.331Z,102008.09
2023-05-19T05:08:24.851Z,102009.31
2023-05-19T05:10:55.429Z,102014.31
2023-05-19T05:13:23.937Z,102005.47
2023-05-19T05:15:52.197Z,102010.31
2023-05-19T05:18:19.124Z,101998.59
2023-05-19T05:20:46.928Z,102011.91
2023-05-19T05:23:14.638Z,102002.41
2023-05-19T05:25:42.052Z,101997.53
2023-05-19T05:28:08.839Z,102002.63
2023-05-19T05:30:35.775Z,102004.31
2023-05-19T05:33:03.248Z,102002.91
2023-05-19T05:35:29.951Z,102000.84
2023-05-19T05:37:56.522Z,101995.69
2023-05-19T05:40:23.173Z,102003.50
2023-05-19T05:42:49.792Z,102010.06
2023-05-19T05:45:16.357Z,101998.06
2023-05-19T05:47:43.201Z,101999.84
2023-05-19T05:50:10.844Z,102000.97
2023-05-19T05:52:38.243Z,102005.44
2023-05-19T05:55:05.661Z,101998.84
2023-05-19T05:57:35.328Z,102006.75
2023-05-19T06:00:02.320Z,101998.97
2023-05-19T06:02:29.919Z,101999.78
2023-05-19T06:04:56.541Z,102001.91
2023-05-19T06:07:24.256Z,102001.84
2023-05-19T06:09:50.828Z,102003.09
2023-05-19T06:12:17.994Z,102005.81
2023-05-19T06:14:44.566Z,102005.66
2023-05-19T06:17:11.207Z,102003.75
2023-05-19T06:19:37.678Z,102008.59
2023-05-19T06:22:04.287Z,102013.31
2023-05-19T06:24:30.947Z,102011.91
2023-05-19T06:26:57.510Z,102022.84
2023-05-19T06:29:24.026Z,102015.97
2023-05-19T06:31:50.710Z,102018.69
2023-05-19T06:34:17.924Z,102026.19
2023-05-19T06:36:44.500Z,102014.84
2023-05-19T06:39:11.041Z,102020.72
2023-05-19T06:41:37.571Z,102022.72
2023-05-19T06:44:04.437Z,102024.72
2023-05-19T06:46:31.218Z,102025.94
2023-05-19T06:48:57.859Z,102021.09
2023-05-19T06:51:24.387Z,102033.44
2023-05-19T06:53:50.946Z,102026.56
2023-05-19T06:56:18.913Z,102026.16
2023-05-19T06:58:45.763Z,102029.59
2023-05-19T07:01:12.323Z,102028.00
2023-05-19T07:03:39.213Z,102028.59
2023-05-19T07:06:08.081Z,102026.81
2023-05-19T07:08:37.052Z,102029.44
2023-05-19T07:11:03.826Z,102034.47
2023-05-19T07:13:30.271Z,102034.28
2023-05-19T07:15:56.954Z,102041.34
2023-05-19T07:18:23.474Z,102036.50
2023-05-19T07:20:52.189Z,102038.75
2023-05-19T07:23:18.748Z,102027.16
2023-05-19T07:25:45.273Z,102030.63
2023-05-19T07:28:11.897Z,102022.69
2023-05-19T07:30:39.037Z,102020.81
2023-05-19T07:33:05.684Z,102034.03
2023-05-19T07:35:32.688Z,102037.88
2023-05-19T07:37:59.303Z,102035.47
2023-05-19T07:40:26.052Z,102026.41
2023-05-19T07:42:52.659Z,102020.28
2023-05-19T07:45:19.165Z,102015.97
2023-05-19T07:47:45.879Z,102014.44
2023-05-19T07:50:12.430Z,102017.84
2023-05-19T07:52:39.019Z,102020.56
2023-05-19T07:55:06.032Z,102021.00
2023-05-19T07:57:32.543Z,102025.44
2023-05-19T07:59:59.048Z,102017.63
2023-05-19T08:02:25.780Z,102019.28
2023-05-19T08:04:53.192Z,102017.19
2023-05-19T08:07:19.745Z,102021.25
2023-05-19T08:09:46.303Z,102019.19
2023-05-19T08:12:12.864Z,102013.44
2023-05-19T08:14:39.374Z,102013.22
2023-05-19T08:17:06.520Z,102012.19
2023-05-19T08:19:33.025Z,102009.03
2023-05-19T08:22:01.201Z,102005.38
2023-05-19T08:24:32.795Z,102010.00
2023-05-19T08:26:59.604Z,102013.34
2023-05-19T08:29:26.236Z,102005.25
2023-05-19T08:31:53.474Z,102010.06
2023-05-19T08:34:20.803Z,102000.22
2023-05-19T08:36:47.709Z,102007.97
2023-05-19T08:39:16.199Z,101999.22
2023-05-19T08:41:42.713Z,102005.59
2023-05-19T08:44:09.716Z,102000.09
2023-05-19T08:46:36.584Z,102002.38
2023-05-19T08:49:10.280Z,102002.81
2023-05-19T08:51:50.042Z,101999.88
2023-05-19T08:54:18.100Z,102004.22
2023-05-19T08:56:45.716Z,102010.44
2023-05-19T08:59:15.270Z,102002.06
2023-05-19T09:01:45.996Z,102007.69
2023-05-19T09:04:13.446Z,102000.56
2023-05-19T09:06:42.468Z,102001.22
2023-05-19T09:09:09.332Z,102004.09
2023-05-19T09:11:37.582Z,102000.19
2023-05-19T09:14:05.274Z,102002.34
2023-05-19T09:16:33.843Z,101994.75
2023-05-19T09:19:03.275Z,101996.94
2023-05-19T09:21:33.621Z,102000.50
2023-05-19T09:24:07.915Z,102003.03
2023-05-19T09:26:38.684Z,102005.22
2023-05-19T09:29:29.055Z,101993.81
2023-05-19T09:32:01.062Z,101999.28
2023-05-19T09:34:28.034Z,102002.59
2023-05-19T09:36:54.850Z,102002.44
2023-05-19T09:39:23.047Z,102000.13
2023-05-19T09:41:58.685Z,101996.78
2023-05-19T09:44:30.403Z,101998.09
2023-05-19T09:46:58.841Z,102004.50
2023-05-19T09:49:29.466Z,102002.97
2023-05-19T09:52:02.208Z,102002.94
2023-05-19T09:54:32.106Z,101999.84
2023-05-19T09:56:59.860Z,102007.44
2023-05-19T09:59:29.753Z,102001.19
2023-05-19T10:01:59.498Z,102000.47
2023-05-19T10:04:29.692Z,101989.72
2023-05-19T10:07:01.037Z,101990.75
2023-05-19T10:09:29.437Z,101983.47
2023-05-19T10:11:57.912Z,101989.00
2023-05-19T10:14:26.318Z,101991.31
2023-05-19T10:16:57.728Z,101993.13
2023-05-19T10:19:26.189Z,101985.22
2023-05-19T10:21:53.419Z,101988.16
2023-05-19T10:24:21.320Z,101999.53
2023-05-19T10:26:56.406Z,101995.75
2023-05-19T10:29:29.663Z,101993.22
2023-05-19T10:32:01.156Z,101991.03
2023-05-19T10:34:37.498Z,101987.69
2023-05-19T10:37:22.442Z,101978.28
2023-05-19T10:39:51.331Z,101991.72
2023-05-19T10:42:33.478Z,101997.19
2023-05-19T10:45:12.261Z,101993.88
2023-05-19T10:47:44.082Z,101995.09
2023-05-19T10:50:11.141Z,102004.63
2023-05-19T10:52:39.697Z,102003.88
2023-05-19T10:55:15.796Z,101999.91
2023-05-19T10:57:54.243Z,101998.16
2023-05-19T11:00:28.548Z,102007.13
2023-05-19T11:03:18.631Z,102002.50
2023-05-19T11:05:45.441Z,101999.44
2023-05-19T11:08:13.009Z,101993.59
2023-05-19T11:10:39.626Z,101990.06
2023-05-19T11:13:06.785Z,101992.22
2023-05-19T11:15:39.315Z,101988.69
2023-05-19T11:18:06.301Z,101988.50
2023-05-19T11:20:34.927Z,101988.06
2023-05-19T11:23:08.606Z,101981.59
2023-05-19T11:25:46.978Z,101973.19
2023-05-19T11:28:29.255Z,101965.44
2023-05-19T11:30:59.035Z,101970.72
2023-05-19T11:33:29.057Z,101966.34
2023-05-19T11:36:00.237Z,101964.41
2023-05-19T11:38:28.593Z,101969.34
2023-05-19T11:40:56.265Z,101963.72
2023-05-19T11:43:24.392Z,101976.25
2023-05-19T11:45:51.246Z,101970.38
2023-05-19T11:48:21.114Z,101966.78
2023-05-19T11:50:47.818Z,101972.06
2023-05-19T11:53:16.398Z,101973.03
2023-05-19T11:55:47.580Z,101969.22
2023-05-19T11:58:14.856Z,101965.66
2023-05-19T12:00:43.115Z,101965.31
2023-05-19T12:03:10.063Z,101975.31
2023-05-19T12:05:42.933Z,101978.06
2023-05-19T12:08:11.495Z,101967.75
2023-05-19T12:10:39.539Z,101966.22
2023-05-19T12:13:10.301Z,101976.03
2023-05-19T12:15:37.960Z,101981.25
2023-05-19T12:18:04.614Z,101978.19
2023-05-19T12:20:32.885Z,101981.72
2023-05-19T12:23:00.799Z,101980.16
2023-05-19T12:25:29.390Z,101972.25
2023-05-19T12:28:05.943Z,101972.34
2023-05-19T12:30:33.670Z,101975.03
2023-05-19T12:33:02.224Z,101969.28
2023-05-19T12:35:33.228Z,101957.59
2023-05-19T12:38:04.732Z,101971.59
2023-05-19T12:40:31.916Z,101979.31
2023-05-19T12:43:01.511Z,101971.75
2023-05-19T12:45:28.763Z,101979.06
2023-05-19T12:47:56.022Z,101974.56
2023-05-19T12:50:31.257Z,101972.56
2023-05-19T12:52:59.886Z,101984.34
2023-05-19T12:55:26.725Z,101978.09
2023-05-19T12:57:59.229Z,101973.91
2023-05-19T13:00:28.698Z,101966.56
2023-05-19T13:03:06.585Z,101962.59
2023-05-19T13:05:38.857Z,101969.88
2023-05-19T13:08:08.100Z,101966.91
2023-05-19T13:10:36.438Z,101972.59
2023-05-19T13:13:05.148Z,101972.81
2023-05-19T13:15:37.765Z,101984.56
2023-05-19T13:18:06.739Z,101981.72
2023-05-19T13:20:34.281Z,101982.69
2023-05-19T13:23:01.558Z,101978.47
2023-05-19T13:25:28.314Z,101972.81
2023-05-19T13:27:55.318Z,101975.72
2023-05-19T13:30:22.689Z,101982.38
2023-05-19T13:32:49.279Z,101974.69
2023-05-19T13:35:15.999Z,101974.47
2023-05-19T13:37:42.888Z,101968.53
2023-05-19T13:40:09.947Z,101967.41
2023-05-19T13:42:36.708Z,101972.41
2023-05-19T13:45:03.982Z,101962.59
2023-05-19T13:47:30.806Z,101962.97
2023-05-19T13:49:57.664Z,101961.16
2023-05-19T13:52:24.298Z,101952.31
2023-05-19T13:54:51.046Z,101950.44
2023-05-19T13:57:18.234Z,101953.63
2023-05-19T13:59:57.649Z,101945.06
2023-05-19T14:02:28.338Z,101951.56
2023-05-19T14:04:55.998Z,101947.47
2023-05-19T14:07:22.753Z,101947.88
2023-05-19T14:09:51.238Z,101940.94
2023-05-19T14:12:25.531Z,101931.19
2023-05-19T14:15:02.167Z,101938.00
2023-05-19T14:17:29.088Z,101936.34
2023-05-19T14:19:56.250Z,101940.69
2023-05-19T14:22:22.851Z,101942.41
2023-05-19T14:24:49.479Z,101950.03
2023-05-19T14:27:16.083Z,101956.53
2023-05-19T14:29:42.923Z,101964.03
2023-05-19T14:32:09.486Z,101964.84
2023-05-19T14:34:36.230Z,101955.72
2023-05-19T14:37:02.862Z,101961.59
2023-05-19T14:39:31.176Z,101958.13
2023-05-19T14:41:59.528Z,101962.38
2023-05-19T14:44:30.836Z,101964.25
2023-05-19T14:46:57.414Z,101965.13
2023-05-19T14:49:23.912Z,101961.69
2023-05-19T14:51:50.683Z,101971.00
2023-05-19T14:54:17.210Z,101970.56
2023-05-19T14:56:44.302Z,101972.19
2023-05-19T14:59:10.838Z,101977.44
2023-05-19T15:01:37.647Z,101966.94
2023-05-19T15:04:04.504Z,101969.94
2023-05-19T15:06:31.131Z,101967.91
2023-05-19T15:08:57.603Z,101977.00
2023-05-19T15:11:24.131Z,101969.13
2023-05-19T15:13:50.686Z,101966.91
2023-05-19T15:16:18.376Z,101968.91
2023-05-19T15:18:45.490Z,101968.72
2023-05-19T15:21:12.682Z,101965.28
2023-05-19T15:23:39.279Z,101971.94
2023-05-19T15:26:05.966Z,101967.31
2023-05-19T15:28:33.555Z,101963.28
2023-05-19T15:31:00.653Z,101959.84
2023-05-19T15:33:27.288Z,101955.81
2023-05-19T15:35:54.339Z,101963.88
2023-05-19T15:38:20.923Z,101966.69
2023-05-19T15:40:48.073Z,101966.50
2023-05-19T15:43:14.775Z,101959.38
2023-05-19T15:45:41.529Z,101963.63
2023-05-19T15:48:08.628Z,101965.25
2023-05-19T15:50:36.117Z,101965.66
2023-05-19T15:53:03.458Z,101957.78
2023-05-19T15:55:30.163Z,101961.38
2023-05-19T15:57:57.158Z,101957.16
2023-05-19T16:00:23.772Z,101953.72
2023-05-19T16:02:50.784Z,101959.78
2023-05-19T16:05:17.818Z,101964.84
2023-05-19T16:07:44.378Z,101962.84
2023-05-19T16:10:11.306Z,101962.84
2023-05-19T16:12:37.792Z,101961.22
2023-05-19T16:15:04.781Z,101959.38
2023-05-19T16:17:31.503Z,101965.66
2023-05-19T16:19:58.066Z,101961.38
2023-05-19T16:22:25.439Z,101965.22
2023-05-19T16:24:52.451Z,101962.56
2023-05-19T16:27:19.185Z,101958.34
2023-05-19T16:29:45.909Z,101950.88
2023-05-19T16:32:12.950Z,101955.09
2023-05-19T16:34:39.919Z,101951.28
2023-05-19T16:37:06.522Z,101948.66
2023-05-19T16:39:36.266Z,101956.53
2023-05-19T16:42:06.231Z,101952.47
2023-05-19T16:44:32.839Z,101951.28
2023-05-19T16:47:00.067Z,101953.91
2023-05-19T16:49:26.799Z,101951.00
2023-05-19T16:51:54.249Z,101947.34
2023-05-19T16:54:21.364Z,101947.31
2023-05-19T16:56:47.958Z,101950.97
2023-05-19T16:59:14.572Z,101950.91
2023-05-19T17:01:41.345Z,101945.81
2023-05-19T17:04:08.217Z,101952.34
2023-05-19T17:06:34.899Z,101944.03
2023-05-19T17:09:01.999Z,101946.63
2023-05-19T17:11:28.558Z,101941.59
2023-05-19T17:13:55.026Z,101944.19
2023-05-19T17:16:21.698Z,101946.81
2023-05-19T17:18:48.350Z,101936.75
2023-05-19T17:21:14.961Z,101934.94
2023-05-19T17:23:41.893Z,101937.72
2023-05-19T17:26:09.033Z,101934.31
2023-05-19T17:28:35.777Z,101936.06
2023-05-19T17:31:10.684Z,101937.25
2023-05-19T17:33:37.398Z,101942.72
2023-05-19T17:36:04.905Z,101936.88
2023-05-19T17:38:32.454Z,101940.50
2023-05-19T17:40:59.690Z,101931.81
2023-05-19T17:43:26.962Z,101937.47
2023-05-19T17:45:54.514Z,101939.84
2023-05-19T17:48:21.139Z,101942.28
2023-05-19T17:50:48.553Z,101934.19
2023-05-19T17:53:16.117Z,101946.47
2023-05-19T17:55:50.268Z,101951.72
2023-05-19T17:58:18.183Z,101943.66
2023-05-19T18:00:46.628Z,101943.63
2023-05-19T18:03:13.683Z,101951.50
2023-05-19T18:05:41.209Z,101948.41
2023-05-19T18:08:09.316Z,101943.97
2023-05-19T18:10:37.743Z,101952.38
2023-05-19T18:13:05.342Z,101948.34
2023-05-19T18:15:32.083Z,101957.59
2023-05-19T18:17:59.117Z,101956.56
2023-05-19T18:20:25.690Z,101961.97
2023-05-19T18:22:52.197Z,101959.16
2023-05-19T18:25:19.982Z,101964.38
2023-05-19T18:27:47.458Z,101956.72
2023-05-19T18:30:13.996Z,101954.09
2023-05-19T18:32:40.668Z,101961.56
2023-05-19T18:35:08.568Z,101963.75
2023-05-19T18:37:35.730Z,101962.97
2023-05-19T18:40:02.322Z,101966.78
2023-05-19T18:42:32.205Z,101962.75
2023-05-19T18:44:59.530Z,101968.22
2023-05-19T18:47:26.182Z,101963.34
2023-05-19T18:49:53.135Z,101961.09
2023-05-19T18:52:21.843Z,101966.16
2023-05-19T18:54:48.785Z,101961.28
2023-05-19T18:57:15.372Z,101967.75
2023-05-19T18:59:42.443Z,101969.97
2023-05-19T19:02:09.015Z,101970.34
2023-05-19T19:04:38.395Z,101970.16
2023-05-19T19:07:08.608Z,101963.91
2023-05-19T19:09:35.652Z,101967.75
2023-05-19T19:12:02.157Z,101963.28
2023-05-19T19:14:28.646Z,101963.47
2023-05-19T19:16:55.292Z,101966.09
2023-05-19T19:19:23.741Z,101969.09
2023-05-19T19:21:50.795Z,101967.75
2023-05-19T19:24:17.305Z,101962.41
2023-05-19T19:26:44.374Z,101964.84
2023-05-19T19:29:11.077Z,101965.84
2023-05-19T19:31:38.444Z,101966.88
2023-05-19T19:34:09.125Z,101962.41
2023-05-19T19:36:36.237Z,101966.88
2023-05-19T19:39:02.933Z,101969.50
2023-05-19T19:41:30.241Z,101968.66
2023-05-19T19:43:56.904Z,101978.13
2023-05-19T19:46:23.683Z,101974.72
2023-05-19T19:48:51.209Z,101973.66
2023-05-19T19:51:17.870Z,101980.28
2023-05-19T19:53:44.555Z,101983.53
2023-05-19T19:56:11.245Z,101981.09
2023-05-19T19:58:37.881Z,101978.84
2023-05-19T20:01:06.045Z,101982.91
2023-05-19T20:03:33.346Z,101975.84
2023-05-19T20:06:00.006Z,101978.47
2023-05-19T20:08:27.055Z,101978.47
2023-05-19T20:10:53.748Z,101981.47
2023-05-19T20:13:20.959Z,101979.06
2023-05-19T20:15:47.599Z,101979.06
2023-05-19T20:18:14.403Z,101981.84
2023-05-19T20:20:41.697Z,101978.84
2023-05-19T20:23:08.783Z,101986.28
2023-05-19T20:25:53.686Z,101988.47
2023-05-19T20:28:26.140Z,101987.66
2023-05-19T20:30:52.722Z,101999.91
2023-05-19T20:33:22.588Z,101991.47
2023-05-19T20:35:49.387Z,101991.19
2023-05-19T20:38:16.010Z,101994.63
2023-05-19T20:40:43.607Z,101992.81
2023-05-19T20:43:10.281Z,101985.94
2023-05-19T20:45:37.415Z,101996.88
2023-05-19T20:48:04.742Z,101991.03
2023-05-19T20:50:31.937Z,101991.81
2023-05-19T20:52:59.132Z,101992.44
2023-05-19T20:55:26.010Z,101987.19
2023-05-19T20:57:52.818Z,101988.56
2023-05-19T21:00:19.340Z,101994.00
2023-05-19T21:02:46.074Z,101987.59
2023-05-19T21:05:12.828Z,101983.53
2023-05-19T21:07:39.609Z,101989.78
2023-05-19T21:10:06.995Z,101987.16
2023-05-19T21:12:34.271Z,101987.78
2023-05-19T21:15:03.498Z,101980.91
2023-05-19T21:17:30.136Z,101987.16
2023-05-19T21:19:57.802Z,101982.88
2023-05-19T21:22:25.387Z,101981.66
2023-05-19T21:24:52.246Z,101984.09
2023-05-19T21:27:18.889Z,101990.75
2023-05-19T21:29:45.394Z,101989.31
2023-05-19T21:32:12.000Z,101997.44
2023-05-19T21:34:39.086Z,101995.00
2023-05-19T21:37:06.095Z,102003.50
2023-05-19T21:39:32.585Z,102000.06
2023-05-19T21:41:59.375Z,102002.66
2023-05-19T21:44:26.419Z,102004.28
2023-05-19T21:46:53.116Z,101996.63
2023-05-19T21:49:20.305Z,102001.22
2023-05-19T21:51:46.849Z,102005.28
2023-05-19T21:54:13.448Z,102003.06
2023-05-19T21:56:40.023Z,101998.59
2023-05-19T21:59:06.894Z,102005.59
2023-05-19T22:01:33.793Z,102001.34
2023-05-19T22:04:00.445Z,102001.16
2023-05-19T22:06:27.081Z,102004.59
2023-05-19T22:08:53.852Z,102007.03
2023-05-19T22:11:21.388Z,102004.41
2023-05-19T22:13:47.875Z,102010.28
2023-05-19T22:16:14.554Z,102011.44
2023-05-19T22:18:41.152Z,102009.84
2023-05-19T22:21:08.052Z,102009.66
2023-05-19T22:23:34.610Z,101998.72
2023-05-19T22:26:01.240Z,102004.78
2023-05-19T22:28:27.779Z,101996.13
2023-05-19T22:30:54.305Z,101997.56
2023-05-19T22:33:20.899Z,101996.94
2023-05-19T22:35:47.462Z,101995.19
2023-05-19T22:38:14.092Z,101994.06
2023-05-19T22:40:40.849Z,101994.41
2023-05-19T22:43:07.369Z,101991.53
2023-05-19T22:45:36.169Z,101983.94
2023-05-19T22:48:03.123Z,101983.50
2023-05-19T22:50:29.806Z,101977.44
2023-05-19T22:52:56.348Z,101976.00
2023-05-19T22:55:22.865Z,101974.38
2023-05-19T22:57:49.473Z,101974.00
2023-05-19T23:00:18.652Z,101980.44
2023-05-19T23:02:45.404Z,101978.59
2023-05-19T23:05:11.938Z,101974.00
2023-05-19T23:07:38.546Z,101982.88
2023-05-19T23:10:07.410Z,101975.19
2023-05-19T23:12:34.016Z,101979.63
2023-05-19T23:15:00.752Z,101976.19
2023-05-19T23:17:27.526Z,101978.78
2023-05-19T23:19:54.072Z,101978.97
2023-05-19T23:22:20.629Z,101975.38
2023-05-19T23:24:47.270Z,101982.81
2023-05-19T23:27:13.789Z,101977.56
2023-05-19T23:29:40.363Z,101982.81
2023-05-19T23:32:07.264Z,101992.00
2023-05-19T23:34:33.810Z,101984.16
2023-05-19T23:37:00.342Z,101977.91
2023-05-19T23:39:27.577Z,101972.88
2023-05-19T23:41:54.137Z,101974.50
2023-05-19T23:44:20.649Z,101974.69
2023-05-19T23:46:47.204Z,101970.63
2023-05-19T23:49:14.474Z,101976.88
2023-05-19T23:51:41.378Z,101969.38
2023-05-19T23:54:07.892Z,101973.81
2023-05-19T23:56:34.498Z,101968.38
2023-05-19T23:59:01.078Z,101964.56
